• Join FlightAware (Why Join?)
  • Login
  • US Flag 
05:51AM EDT


 

Airport Tracker/Info


-or-


 

Live Flight TrackerFlight Track Log ✈ N1108P ✈ 08-May-2013 ✈ KBUR - KSBA

Flight Track Log - Related Links

Times and Time Zones

All times are in EDT time to prevent confusion due to time zone crossing. See the N1108P flight status page for this flight to view local times or setup timezone preferences in your user account.

Time Position Orientation Groundspeed Altitude Reporting Facility
EDT Latitude Longitude Course Direction KTS MPH feet Rate Location/Type
01:36PM 34.2167 -118.3833 320° Northwest 100 115 2,800  Level Southern California TRACON
01:37PM 34.2333 -118.4167 301° West 105 121 3,500 660 Climbing Southern California TRACON
01:38PM 34.2333 -118.4500 270° West 105 121 4,200 480 Climbing Southern California TRACON
01:39PM 34.2500 -118.4833 301° West 126 145 4,500 120 Climbing Southern California TRACON
01:40PM 34.2276 -118.5296 281° West  Level Estimated
01:40PM 34.2500 -118.5333 270° West 139 160 4,500  Level Southern California TRACON
01:41PM 34.2500 -118.5833 270° West 137 158 4,500  Level Southern California TRACON
01:42PM 34.2667 -118.6167 301° West 140 161 4,500 60 Level Southern California TRACON
01:43PM 34.2647 -118.6511 266° West 143 165 4,600 60 Climbing Los Angeles Center
01:43PM 34.2719 -118.6636 305° West 140 161 4,600  Level Los Angeles Center
01:43PM 34.2697 -118.6831 262° West 142 163 4,600  Level Los Angeles Center
01:44PM 34.2808 -118.7208 290° West 143 165 4,600 -120 Level Los Angeles Center
01:44PM 34.2783 -118.7300 252° West 144 166 4,500 -120 Descending Los Angeles Center
01:45PM 34.2883 -118.7681 288° West 144 166 4,500  Level Los Angeles Center
01:45PM 34.2872 -118.7792 263° West 145 167 4,500  Level Los Angeles Center
01:46PM 34.2967 -118.8153 288° West 145 167 4,500  Level Los Angeles Center
01:46PM 34.2961 -118.8283 267° West 146 168 4,500  Level Los Angeles Center
01:47PM 34.3028 -118.8650 282° West 148 170 4,500  Level Los Angeles Center
01:47PM 34.3031 -118.8781 271° West 146 168 4,500  Level Los Angeles Center
01:48PM 34.3086 -118.9103 282° West 138 159 4,500  Level Los Angeles Center
01:48PM 34.3058 -118.9294 260° West 143 165 4,500  Level Los Angeles Center
01:49PM 34.3100 -118.9594 280° West 143 165 4,500  Level Los Angeles Center
01:49PM 34.3100 -118.9775 270° West 145 167 4,500  Level Los Angeles Center
01:50PM 34.3103 -119.0175 270° West 144 166 4,500  Level Los Angeles Center
01:50PM 34.3089 -119.0300 262° West 148 170 4,500  Level Los Angeles Center
01:51PM 34.3075 -119.0656 267° West 143 165 4,500  Level Los Angeles Center
01:51PM 34.3125 -119.0756 301° West 140 161 4,500 -120 Level Los Angeles Center
01:52PM 34.3172 -119.1133 279° West 146 168 4,400 -60 Descending Los Angeles Center
01:53PM 34.3250 -119.1597 281° West 144 166 4,400  Level Los Angeles Center
01:54PM 34.3303 -119.2072 278° West 143 165 4,400 60 Level Los Angeles Center
01:55PM 34.3328 -119.2253 280° West 145 167 4,500  Climbing Los Angeles Center
01:55PM 34.3342 -119.2639 273° West 142 163 4,400 -120 Descending Los Angeles Center
01:56PM 34.3353 -119.3019 272° West 143 165 4,400 -120 Level Los Angeles Center
01:56PM 34.3367 -119.3128 279° West 142 163 4,300 -240 Descending Los Angeles Center
01:57PM 34.3383 -119.3636 272° West 146 168 4,100 -240 Descending Los Angeles Center
01:58PM 34.3506 -119.4097 288° West 147 169 3,900 -240 Descending Los Angeles Center
01:59PM 34.3636 -119.4558 289° West 147 169 3,700 -300 Descending Los Angeles Center
02:00PM 34.3794 -119.5092 290° West 144 166 3,300 -300 Descending Los Angeles Center
02:01PM 34.3922 -119.5544 289° West 146 168 3,100 -300 Descending Los Angeles Center
02:02PM 34.4042 -119.5975 289° West 148 170 2,800 -300 Descending Los Angeles Center
02:03PM 34.4147 -119.6358 288° West 149 171 2,600 -240 Descending Los Angeles Center
02:04PM 34.4192 -119.6536 287° West 148 170 2,500 -360 Descending Los Angeles Center
02:04PM 34.4319 -119.6928 292° West 151 174 2,200 -360 Descending Los Angeles Center
02:05PM 34.4411 -119.7444 282° West 151 174 1,900 -360 Descending Los Angeles Center
02:06PM 34.4500 -119.7939 282° West 142 163 1,500 -480 Descending Los Angeles Center
02:08PM 34.4483 -119.8439 268° West 101 116 800 -600 Descending Los Angeles Center
02:10PM 34.4262 -119.8415 165° South  Level Estimated
02:17PM 34.4262 -119.8415 281° West  Level Estimated